Time;durP1;ratioP1;P1;durP2;ratioP2;P2;SDS_P1;SDS_P2;PMS_P1;PMS_P2;Temp;Humidity;BMP_temperature;BMP_pressure;BME280_temperature;BME280_humidity;BME280_pressure;Samples;Min_cycle;Max_cycle;Signal;HPM_P1;HPM_P2
2023/11/11 00:00:40;;;;;;;;;;;;;;;20.85;30.40;97279.59;4963230;28;942;-73
2023/11/11 00:03:06;;;;;;;;;;;;;;;20.97;29.86;97275.91;4963242;28;1898;-73
2023/11/11 00:05:31;;;;;;;;;;;;;;;20.93;29.92;97280.91;4995436;28;907;-74
2023/11/11 00:07:57;;;;;;;;;;;;;;;20.87;29.62;97272.22;4979527;28;739;-73
2023/11/11 00:10:22;;;;;;;;;;;;;;;20.99;29.33;97279.88;4963218;28;1133;-74
2023/11/11 00:12:48;;;;;;;;;;;;;;;20.64;29.51;97266.97;4940681;29;1163;-73
2023/11/11 00:15:13;;;;;;;;;;;;;;;21.23;29.27;97263.22;4956470;28;902;-73
2023/11/11 00:17:39;;;;;;;;;;;;;;;21.44;29.26;97252.41;4956300;28;1049;-74
2023/11/11 00:20:12;;;;;;;;;;;;;;;21.69;29.12;97265.59;4956757;28;1012;-73
2023/11/11 00:22:39;;;;;;;;;;;;;;;21.82;28.84;97278.44;4956776;28;758;-74
2023/11/11 00:25:05;;;;;;;;;;;;;;;21.60;29.44;97272.00;4940472;29;1911;-73
2023/11/11 00:27:31;;;;;;;;;;;;;;;21.08;29.62;97276.31;4956050;28;962;-73
2023/11/11 00:29:57;;;;;;;;;;;;;;;21.05;29.43;97263.09;4975524;28;972;-74
2023/11/11 00:32:23;;;;;;;;;;;;;;;20.99;29.31;97262.91;4975747;28;1132;-74
2023/11/11 00:34:49;;;;;;;;;;;;;;;21.10;28.96;97256.84;4975450;28;1051;-74
2023/11/11 00:37:16;;;;;;;;;;;;;;;20.74;29.55;97246.03;4975275;28;797;-73
2023/11/11 00:39:42;;;;;;;;;;;;;;;20.70;29.31;97237.66;4975184;28;787;-73
2023/11/11 00:42:07;;;;;;;;;;;;;;;20.85;29.09;97237.16;4975756;28;1173;-74
2023/11/11 00:44:33;;;;;;;;;;;;;;;20.59;29.16;97223.13;4975551;28;1995;-74
2023/11/11 00:46:59;;;;;;;;;;;;;;;20.78;28.77;97230.53;4975932;28;763;-74
2023/11/11 00:49:24;;;;;;;;;;;;;;;20.59;29.05;97223.13;4978871;28;888;-73
2023/11/11 00:51:52;;;;;;;;;;;;;;;20.64;28.75;97230.22;4994962;28;1088;-74
2023/11/11 00:54:17;;;;;;;;;;;;;;;20.66;28.65;97228.50;4986148;28;1132;-73
2023/11/11 00:56:43;;;;;;;;;;;;;;;21.13;28.55;97227.63;5036180;28;774;-73
2023/11/11 00:59:10;;;;;;;;;;;;;;;21.24;28.25;97227.22;5036741;28;1050;-73
2023/11/11 01:01:35;;;;;;;;;;;;;;;21.40;28.37;97229.09;5018885;28;1237;-73
2023/11/11 01:04:01;;;;;;;;;;;;;;;21.44;28.33;97207.13;5018726;28;1981;-73
2023/11/11 01:06:27;;;;;;;;;;;;;;;21.55;28.11;97201.81;5018719;28;676;-74
2023/11/11 01:08:52;;;;;;;;;;;;;;;21.19;28.39;97191.88;5001136;28;1127;-74
2023/11/11 01:11:19;;;;;;;;;;;;;;;21.03;28.62;97190.00;5034186;28;886;-74
2023/11/11 01:13:45;;;;;;;;;;;;;;;20.69;28.73;97188.03;5017502;28;861;-73
2023/11/11 01:16:10;;;;;;;;;;;;;;;20.60;28.81;97187.94;5034150;28;1221;-73
2023/11/11 01:18:36;;;;;;;;;;;;;;;20.79;28.53;97186.06;5033914;28;879;-74
2023/11/11 01:21:04;;;;;;;;;;;;;;;20.66;28.59;97177.63;5001169;28;1238;-73
2023/11/11 01:23:30;;;;;;;;;;;;;;;20.68;28.81;97185.69;5017435;28;1906;-74
2023/11/11 01:25:57;;;;;;;;;;;;;;;20.83;28.32;97191.59;5017407;28;1079;-73
2023/11/11 01:28:23;;;;;;;;;;;;;;;20.75;28.38;97180.53;5017496;28;1651;-73
2023/11/11 01:30:49;;;;;;;;;;;;;;;20.97;27.99;97179.75;5033727;28;908;-73
2023/11/11 01:33:15;;;;;;;;;;;;;;;21.36;27.40;97171.88;5017479;28;1490;-74
2023/11/11 01:35:40;;;;;;;;;;;;;;;21.44;27.71;97173.16;5033437;28;1124;-73
2023/11/11 01:38:06;;;;;;;;;;;;;;;21.49;27.50;97169.72;5034110;28;798;-74
2023/11/11 01:40:32;;;;;;;;;;;;;;;21.46;27.51;97160.13;5035519;28;783;-73
2023/11/11 01:43:01;;;;;;;;;;;;;;;21.23;27.64;97164.22;5018538;28;765;-74
2023/11/11 01:45:27;;;;;;;;;;;;;;;20.96;27.81;97166.88;5034012;28;1911;-74
2023/11/11 01:47:53;;;;;;;;;;;;;;;20.56;28.59;97150.53;5002164;28;1400;-74
2023/11/11 01:50:19;;;;;;;;;;;;;;;20.74;28.20;97139.38;5004737;28;1472;-72
2023/11/11 01:52:45;;;;;;;;;;;;;;;20.35;28.69;97151.28;5039369;28;861;-73
2023/11/11 01:55:10;;;;;;;;;;;;;;;20.58;28.51;97136.75;5022034;28;865;-74
2023/11/11 01:57:36;;;;;;;;;;;;;;;21.28;27.26;97143.81;5021950;28;1235;-73
2023/11/11 02:00:06;;;;;;;;;;;;;;;21.57;26.97;97137.06;5022118;28;752;-73
2023/11/11 02:02:32;;;;;;;;;;;;;;;21.51;26.98;97136.88;5020426;28;1295;-74
2023/11/11 02:04:58;;;;;;;;;;;;;;;21.28;27.51;97115.50;5021686;28;1961;-73
2023/11/11 02:07:23;;;;;;;;;;;;;;;20.96;27.82;97111.09;5005746;28;1139;-73
2023/11/11 02:09:49;;;;;;;;;;;;;;;20.70;27.85;97106.84;5036944;28;1431;-73
2023/11/11 02:12:15;;;;;;;;;;;;;;;20.76;27.77;97113.47;5020753;28;861;-73
2023/11/11 02:14:40;;;;;;;;;;;;;;;20.87;27.70;97110.25;5020386;28;1187;-73
2023/11/11 02:17:06;;;;;;;;;;;;;;;21.15;27.29;97111.22;5000699;28;1132;-73
2023/11/11 02:19:32;;;;;;;;;;;;;;;21.20;27.42;97114.22;5017172;28;750;-74
2023/11/11 02:21:57;;;;;;;;;;;;;;;21.41;27.21;97109.00;5000406;28;989;-73
2023/11/11 02:24:23;;;;;;;;;;;;;;;21.39;26.93;97097.34;5016907;28;1979;-73
2023/11/11 02:26:49;;;;;;;;;;;;;;;21.39;27.09;97103.00;5000621;28;1278;-73
2023/11/11 02:29:14;;;;;;;;;;;;;;;20.72;27.80;97105.13;5000772;28;1203;-73
2023/11/11 02:31:40;;;;;;;;;;;;;;;20.65;28.14;97096.91;5000380;28;850;-73
2023/11/11 02:34:05;;;;;;;;;;;;;;;20.44;28.27;97098.47;5000372;28;711;-73
2023/11/11 02:36:31;;;;;;;;;;;;;;;20.97;27.59;97100.56;5016458;28;1176;-74
2023/11/11 02:38:56;;;;;;;;;;;;;;;21.20;27.19;97102.91;5000628;28;718;-73
2023/11/11 02:41:22;;;;;;;;;;;;;;;21.27;27.41;97102.63;5016708;28;878;-74
2023/11/11 02:43:47;;;;;;;;;;;;;;;21.54;26.78;97098.34;5016728;28;1906;-73
2023/11/11 02:46:15;;;;;;;;;;;;;;;20.86;27.98;97100.19;5016908;28;802;-73
2023/11/11 02:48:41;;;;;;;;;;;;;;;20.71;28.02;97100.72;5020364;28;783;-74
2023/11/11 02:51:06;;;;;;;;;;;;;;;20.56;28.01;97099.66;5038609;28;905;-74
2023/11/11 02:53:33;;;;;;;;;;;;;;;20.62;28.01;97091.38;5021030;28;1118;-73
2023/11/11 02:55:59;;;;;;;;;;;;;;;20.69;27.75;97083.44;5037259;28;707;-74
2023/11/11 02:58:25;;;;;;;;;;;;;;;21.01;27.23;97084.25;5020499;28;1235;-73
2023/11/11 03:00:51;;;;;;;;;;;;;;;20.86;27.59;97083.22;5036203;28;846;-74
2023/11/11 03:03:17;;;;;;;;;;;;;;;20.73;27.67;97086.94;5035979;28;1976;-74
2023/11/11 03:05:42;;;;;;;;;;;;;;;20.53;28.26;97083.66;5036305;28;939;-74
2023/11/11 03:08:08;;;;;;;;;;;;;;;20.57;27.75;97089.94;5019691;28;818;-73
2023/11/11 03:10:34;;;;;;;;;;;;;;;20.84;27.49;97097.06;5036398;28;1336;-72
2023/11/11 03:12:59;;;;;;;;;;;;;;;21.02;27.19;97091.50;5019603;28;809;-74
2023/11/11 03:15:25;;;;;;;;;;;;;;;21.08;27.36;97087.59;5019313;28;1123;-74
2023/11/11 03:17:50;;;;;;;;;;;;;;;21.21;27.19;97081.84;5019304;28;1230;-73
2023/11/11 03:20:16;;;;;;;;;;;;;;;21.23;26.79;97079.34;5019014;28;830;-73
2023/11/11 03:22:41;;;;;;;;;;;;;;;20.80;27.61;97063.25;5019401;28;1290;-74
2023/11/11 03:25:08;;;;;;;;;;;;;;;20.58;27.82;97080.22;5035819;28;1975;-72
2023/11/11 03:27:34;;;;;;;;;;;;;;;21.09;27.12;97074.25;5019335;28;1090;-73
2023/11/11 03:29:59;;;;;;;;;;;;;;;20.34;28.50;97077.03;5015728;28;1108;-74
2023/11/11 03:32:26;;;;;;;;;;;;;;;20.95;27.49;97069.16;4999351;28;1131;-73
2023/11/11 03:34:52;;;;;;;;;;;;;;;21.37;26.76;97049.72;4999172;28;1231;-74
2023/11/11 03:37:18;;;;;;;;;;;;;;;21.15;27.12;97046.94;4999226;28;723;-73
2023/11/11 03:39:44;;;;;;;;;;;;;;;21.33;26.91;97049.84;5013769;28;1320;-73
2023/11/11 03:42:10;;;;;;;;;;;;;;;21.22;26.94;97065.66;4980423;28;857;-73
2023/11/11 03:44:36;;;;;;;;;;;;;;;21.02;27.02;97063.19;4995957;28;1895;-73
2023/11/11 03:47:01;;;;;;;;;;;;;;;20.46;28.14;97055.59;4995336;28;1028;-74
2023/11/11 03:49:27;;;;;;;;;;;;;;;20.45;27.96;97048.38;4979796;28;1071;-73
2023/11/11 03:51:52;;;;;;;;;;;;;;;20.87;27.41;97046.00;4981538;28;1100;-73
2023/11/11 03:54:18;;;;;;;;;;;;;;;21.18;27.09;97046.00;4998588;28;1284;-73
2023/11/11 03:56:44;;;;;;;;;;;;;;;21.03;27.12;97042.94;4996385;28;1222;-74
2023/11/11 03:59:10;;;;;;;;;;;;;;;21.42;26.60;97022.84;4998684;28;1380;-74
2023/11/11 04:01:36;;;;;;;;;;;;;;;20.63;26.92;96921.38;4990047;28;1778;-74
2023/11/11 04:04:02;;;;;;;;;;;;;;;21.37;26.71;97020.63;5033619;28;1969;-74
2023/11/11 04:06:28;;;;;;;;;;;;;;;20.77;27.75;97010.44;5003305;28;1260;-75
2023/11/11 04:08:54;;;;;;;;;;;;;;;20.62;27.87;97013.03;4997354;28;1241;-74
2023/11/11 04:11:22;;;;;;;;;;;;;;;20.53;27.85;97016.63;5008065;28;1282;-75
2023/11/11 04:13:47;;;;;;;;;;;;;;;20.57;27.92;97016.47;4990054;28;1319;-75
2023/11/11 04:16:14;;;;;;;;;;;;;;;20.45;28.21;97015.25;4987020;28;1251;-76
2023/11/11 04:18:41;;;;;;;;;;;;;;;21.16;26.93;97030.75;5005941;28;1404;-75
2023/11/11 04:21:08;;;;;;;;;;;;;;;21.22;27.03;97031.72;4995945;28;1256;-76
2023/11/11 04:23:34;;;;;;;;;;;;;;;21.12;26.96;97019.56;4956249;28;1894;-75
2023/11/11 04:26:02;;;;;;;;;;;;;;;20.88;27.17;97019.31;4956862;28;1053;-75
2023/11/11 04:28:28;;;;;;;;;;;;;;;21.02;27.11;97017.97;4899220;29;931;-75
2023/11/11 04:30:53;;;;;;;;;;;;;;;20.68;27.41;97022.50;4899168;29;940;-75
2023/11/11 04:33:19;;;;;;;;;;;;;;;20.58;27.66;97020.09;4880756;29;1325;-75
2023/11/11 04:35:45;;;;;;;;;;;;;;;20.62;27.44;97010.22;4877254;29;1054;-74
2023/11/11 04:38:10;;;;;;;;;;;;;;;20.39;27.76;97005.03;4891348;29;914;-75
2023/11/11 04:40:36;;;;;;;;;;;;;;;21.12;26.92;96998.97;4899547;29;1021;-75
2023/11/11 04:43:01;;;;;;;;;;;;;;;21.20;26.83;96995.41;4898912;29;919;-75
2023/11/11 04:45:27;;;;;;;;;;;;;;;21.28;26.74;96982.53;4899022;29;1959;-75
2023/11/11 04:47:53;;;;;;;;;;;;;;;21.23;26.90;96994.47;4914829;29;1081;-75
2023/11/11 04:50:19;;;;;;;;;;;;;;;20.98;27.16;96992.63;4899213;29;791;-75
2023/11/11 04:52:45;;;;;;;;;;;;;;;20.42;27.75;96995.63;4914872;29;1050;-74
2023/11/11 04:55:11;;;;;;;;;;;;;;;20.57;27.89;96985.38;4898947;29;990;-75
2023/11/11 04:57:36;;;;;;;;;;;;;;;20.74;27.20;96986.75;4899135;29;804;-75
2023/11/11 05:00:03;;;;;;;;;;;;;;;21.22;26.58;96998.56;4946083;28;806;-74
2023/11/11 05:02:28;;;;;;;;;;;;;;;21.33;26.71;96996.09;5010979;28;719;-75
2023/11/11 05:04:54;;;;;;;;;;;;;;;21.40;26.57;96991.38;5011109;28;1991;-75
2023/11/11 05:07:22;;;;;;;;;;;;;;;21.45;26.55;96991.59;5011310;28;802;-75
2023/11/11 05:09:48;;;;;;;;;;;;;;;21.09;26.69;97000.72;4998739;28;1143;-75
2023/11/11 05:12:14;;;;;;;;;;;;;;;20.86;27.36;97004.06;5035006;28;1735;-75
2023/11/11 05:14:41;;;;;;;;;;;;;;;20.39;28.04;96999.38;5018873;28;727;-75
2023/11/11 05:17:08;;;;;;;;;;;;;;;21.03;26.77;96997.69;5035255;28;753;-75
2023/11/11 05:19:33;;;;;;;;;;;;;;;20.74;27.28;96989.56;5035347;28;926;-75
2023/11/11 05:21:59;;;;;;;;;;;;;;;20.62;27.67;96996.06;5034942;28;814;-75
2023/11/11 05:24:24;;;;;;;;;;;;;;;20.89;27.36;97008.81;5020079;28;1906;-75
2023/11/11 05:26:50;;;;;;;;;;;;;;;21.18;26.75;97017.69;5040045;28;778;-75
2023/11/11 05:29:15;;;;;;;;;;;;;;;21.20;26.83;97012.38;5005222;28;1068;-75
2023/11/11 05:31:41;;;;;;;;;;;;;;;21.46;26.49;97012.97;5040113;28;841;-75
2023/11/11 05:34:07;;;;;;;;;;;;;;;20.92;27.20;97016.34;5038958;28;1222;-75
2023/11/11 05:36:33;;;;;;;;;;;;;;;20.92;27.06;97027.66;5038768;28;1227;-75
2023/11/11 05:38:59;;;;;;;;;;;;;;;20.53;27.48;97027.13;5040042;28;774;-75
2023/11/11 05:41:24;;;;;;;;;;;;;;;20.59;27.55;97030.16;5039874;28;751;-75
2023/11/11 05:43:50;;;;;;;;;;;;;;;20.87;26.98;97031.09;5039666;28;1898;-75
2023/11/11 05:46:16;;;;;;;;;;;;;;;20.56;27.54;97020.53;5017839;28;845;-75
2023/11/11 05:48:45;;;;;;;;;;;;;;;20.75;27.17;97022.22;5017800;28;922;-75
2023/11/11 05:51:10;;;;;;;;;;;;;;;21.23;26.33;97025.56;5001097;28;1080;-75
2023/11/11 05:53:36;;;;;;;;;;;;;;;21.29;26.24;97025.75;5017690;28;774;-75
2023/11/11 05:56:02;;;;;;;;;;;;;;;21.42;26.44;97025.69;5017867;28;717;-75
2023/11/11 05:58:27;;;;;;;;;;;;;;;21.47;26.14;97020.19;5017642;28;895;-75
2023/11/11 06:00:53;;;;;;;;;;;;;;;21.31;26.60;97011.97;5017161;28;826;-75
2023/11/11 06:03:18;;;;;;;;;;;;;;;21.09;26.62;97012.03;5017260;28;1898;-75
2023/11/11 06:05:47;;;;;;;;;;;;;;;20.77;27.25;97007.63;5017503;28;915;-75
2023/11/11 06:08:12;;;;;;;;;;;;;;;20.75;27.18;96993.97;5017554;28;799;-75
2023/11/11 06:10:38;;;;;;;;;;;;;;;20.39;27.66;96999.38;5017530;28;797;-75
2023/11/11 06:13:07;;;;;;;;;;;;;;;21.04;27.19;96992.84;5001197;28;1650;-75
2023/11/11 06:15:33;;;;;;;;;;;;;;;21.26;26.88;96992.75;5017066;28;767;-75
2023/11/11 06:17:58;;;;;;;;;;;;;;;21.44;26.49;97003.34;5017122;28;890;-75
2023/11/11 06:20:24;;;;;;;;;;;;;;;21.26;26.68;97010.50;5017156;28;874;-75
2023/11/11 06:22:53;;;;;;;;;;;;;;;20.92;27.15;97002.19;5017189;28;904;-75
2023/11/11 06:25:19;;;;;;;;;;;;;;;20.90;27.04;97010.38;5016939;28;1975;-75
2023/11/11 06:27:48;;;;;;;;;;;;;;;20.73;27.57;97002.13;5000562;28;1624;-75
2023/11/11 06:30:16;;;;;;;;;;;;;;;20.93;27.27;96995.28;5000400;28;743;-75
2023/11/11 06:32:45;;;;;;;;;;;;;;;20.70;27.69;96986.09;5016779;28;810;-75
2023/11/11 06:35:12;;;;;;;;;;;;;;;21.17;26.82;96982.19;5015807;28;1251;-75
2023/11/11 06:37:38;;;;;;;;;;;;;;;21.07;26.82;96986.25;4983988;28;1114;-74
2023/11/11 06:40:04;;;;;;;;;;;;;;;21.09;26.80;96989.41;5000632;28;812;-75
2023/11/11 06:42:30;;;;;;;;;;;;;;;21.10;27.07;96984.53;4983711;28;1188;-75
2023/11/11 06:44:56;;;;;;;;;;;;;;;20.89;27.48;96974.88;4996753;28;1917;-75
2023/11/11 06:47:22;;;;;;;;;;;;;;;20.86;27.14;96970.13;4980624;28;861;-76
2023/11/11 06:49:47;;;;;;;;;;;;;;;20.62;27.59;96973.47;5013129;28;1196;-75
2023/11/11 06:52:13;;;;;;;;;;;;;;;20.55;27.55;96985.06;4999978;28;836;-75
2023/11/11 06:54:38;;;;;;;;;;;;;;;20.10;28.68;96989.13;5000300;28;901;-75
2023/11/11 06:57:05;;;;;;;;;;;;;;;20.71;27.85;96992.53;5016586;28;921;-75
2023/11/11 06:59:31;;;;;;;;;;;;;;;21.19;26.80;96982.53;4996650;28;1034;-75
2023/11/11 07:01:56;;;;;;;;;;;;;;;21.36;26.49;96979.44;4996790;28;1030;-75
2023/11/11 07:04:22;;;;;;;;;;;;;;;21.38;26.76;96976.94;4996305;28;1906;-75
2023/11/11 07:06:47;;;;;;;;;;;;;;;21.22;27.04;96970.25;4996820;28;954;-75
2023/11/11 07:09:13;;;;;;;;;;;;;;;21.11;26.86;96975.56;4980346;28;922;-75
2023/11/11 07:11:39;;;;;;;;;;;;;;;20.65;27.60;96978.19;4980137;28;782;-75
2023/11/11 07:14:06;;;;;;;;;;;;;;;20.86;27.30;96975.78;4976712;28;924;-75
2023/11/11 07:16:32;;;;;;;;;;;;;;;21.45;26.50;96962.47;4960969;28;996;-75
2023/11/11 07:18:58;;;;;;;;;;;;;;;21.31;26.84;96967.50;4976821;28;976;-75
2023/11/11 07:21:24;;;;;;;;;;;;;;;21.58;26.49;96971.63;4976728;28;802;-75
2023/11/11 07:23:55;;;;;;;;;;;;;;;21.52;26.60;96962.19;4944718;28;1910;-75
2023/11/11 07:26:20;;;;;;;;;;;;;;;21.15;27.10;96967.72;4945188;28;1231;-75
2023/11/11 07:28:46;;;;;;;;;;;;;;;21.04;27.07;96962.53;4960807;28;918;-75
2023/11/11 07:31:18;;;;;;;;;;;;;;;20.84;27.72;96961.34;4944560;28;799;-75
2023/11/11 07:33:43;;;;;;;;;;;;;;;20.76;27.48;96961.59;4976672;28;1203;-75
2023/11/11 07:36:12;;;;;;;;;;;;;;;20.46;28.18;96948.22;4983909;28;1104;-76
2023/11/11 07:38:39;;;;;;;;;;;;;;;20.36;27.97;96949.44;4964035;28;856;-75
2023/11/11 07:41:06;;;;;;;;;;;;;;;20.76;27.60;96938.22;4963914;28;762;-75
2023/11/11 07:43:32;;;;;;;;;;;;;;;20.96;27.40;96934.97;4960170;28;1906;-75
2023/11/11 07:46:00;;;;;;;;;;;;;;;21.18;27.07;96929.22;4977266;28;938;-76
2023/11/11 07:48:25;;;;;;;;;;;;;;;21.27;26.86;96949.84;4979408;28;1496;-75
2023/11/11 07:50:51;;;;;;;;;;;;;;;21.23;27.05;96949.19;4995877;28;881;-75
2023/11/11 07:53:17;;;;;;;;;;;;;;;20.70;27.75;96946.50;4979628;28;1194;-75
2023/11/11 07:55:45;;;;;;;;;;;;;;;20.64;27.86;96937.06;4995915;28;770;-75
2023/11/11 07:58:12;;;;;;;;;;;;;;;20.64;27.80;96928.59;4979434;28;1127;-75
2023/11/11 08:00:39;;;;;;;;;;;;;;;20.65;27.93;96927.31;4995400;28;882;-76
2023/11/11 08:03:04;;;;;;;;;;;;;;;20.65;27.93;96929.38;4995490;28;871;-75
2023/11/11 08:05:30;;;;;;;;;;;;;;;20.79;27.74;96926.75;4995290;28;1902;-75
2023/11/11 08:07:56;;;;;;;;;;;;;;;21.16;27.01;96929.69;4991998;28;1230;-75
2023/11/11 08:10:22;;;;;;;;;;;;;;;21.31;26.82;96916.56;4991948;28;1242;-75
2023/11/11 08:12:48;;;;;;;;;;;;;;;21.47;26.82;96923.19;4992225;28;1119;-75
2023/11/11 08:15:13;;;;;;;;;;;;;;;20.93;27.69;96947.22;4960237;28;1222;-75
2023/11/11 08:17:39;;;;;;;;;;;;;;;21.06;27.49;96962.81;4956523;28;1116;-75
2023/11/11 08:20:04;;;;;;;;;;;;;;;20.76;27.76;96952.34;4956535;29;842;-76
2023/11/11 08:22:30;;;;;;;;;;;;;;;20.28;28.38;96965.88;4956747;29;1194;-75
2023/11/11 08:24:57;;;;;;;;;;;;;;;21.08;27.62;96970.84;4956383;28;1979;-75
2023/11/11 08:27:24;;;;;;;;;;;;;;;21.13;26.92;96967.41;4972120;28;981;-75
2023/11/11 08:29:49;;;;;;;;;;;;;;;21.27;26.99;96968.84;4956415;29;975;-75
2023/11/11 08:32:17;;;;;;;;;;;;;;;21.23;27.07;96966.16;4956140;29;810;-75
2023/11/11 08:34:42;;;;;;;;;;;;;;;20.89;27.52;96957.91;4956284;29;772;-75
2023/11/11 08:37:08;;;;;;;;;;;;;;;20.64;27.95;96953.25;4956022;29;1169;-75
2023/11/11 08:39:35;;;;;;;;;;;;;;;20.69;28.08;96950.59;4986165;28;873;-75
2023/11/11 08:42:00;;;;;;;;;;;;;;;20.89;27.49;96936.06;4994599;28;844;-75
2023/11/11 08:44:27;;;;;;;;;;;;;;;20.67;27.84;96930.47;4955937;28;1922;-75
2023/11/11 08:46:53;;;;;;;;;;;;;;;20.37;28.18;96922.78;4970928;28;1151;-75
2023/11/11 08:49:18;;;;;;;;;;;;;;;20.44;28.57;96916.84;4959036;28;874;-75
2023/11/11 08:51:44;;;;;;;;;;;;;;;20.84;27.64;96910.44;4975305;28;853;-75
2023/11/11 08:54:10;;;;;;;;;;;;;;;21.12;27.22;96911.31;4975412;28;822;-75
2023/11/11 08:56:35;;;;;;;;;;;;;;;21.32;27.00;96895.50;4975596;28;788;-75
2023/11/11 08:59:00;;;;;;;;;;;;;;;21.17;27.26;96893.72;4974414;28;792;-75
2023/11/11 09:01:26;;;;;;;;;;;;;;;20.71;27.85;96885.88;4958965;28;1237;-75
2023/11/11 09:03:52;;;;;;;;;;;;;;;20.63;28.40;96867.66;4974824;28;1914;-75
2023/11/11 09:06:18;;;;;;;;;;;;;;;20.52;28.38;96870.91;4974847;28;1004;-75
2023/11/11 09:08:43;;;;;;;;;;;;;;;20.64;27.99;96866.41;4974753;28;943;-76
2023/11/11 09:11:12;;;;;;;;;;;;;;;20.51;28.32;96866.50;4974822;28;823;-75
2023/11/11 09:13:38;;;;;;;;;;;;;;;20.56;28.20;96859.44;4975075;28;723;-76
2023/11/11 09:16:04;;;;;;;;;;;;;;;20.32;28.39;96864.06;4974698;28;830;-75
2023/11/11 09:18:30;;;;;;;;;;;;;;;21.16;27.48;96858.97;4955399;28;1027;-75
2023/11/11 09:20:55;;;;;;;;;;;;;;;21.39;26.83;96865.31;4962165;28;783;-75
2023/11/11 09:23:21;;;;;;;;;;;;;;;21.35;26.99;96871.16;5013949;28;1909;-75
2023/11/11 09:25:46;;;;;;;;;;;;;;;21.35;27.14;96870.34;4997827;28;1146;-75
2023/11/11 09:28:12;;;;;;;;;;;;;;;21.02;27.58;96868.06;4997273;28;755;-75
2023/11/11 09:30:38;;;;;;;;;;;;;;;21.08;27.58;96857.69;4981314;28;913;-75
2023/11/11 09:33:04;;;;;;;;;;;;;;;20.97;27.67;96846.06;5013867;28;735;-75
2023/11/11 09:35:30;;;;;;;;;;;;;;;20.71;27.79;96846.31;4997834;28;1103;-75
2023/11/11 09:37:56;;;;;;;;;;;;;;;20.47;28.44;96836.84;4981365;28;1148;-75
2023/11/11 09:40:22;;;;;;;;;;;;;;;20.32;28.71;96835.81;4997572;28;1135;-75
2023/11/11 09:42:47;;;;;;;;;;;;;;;20.84;27.71;96831.28;4981212;28;1378;-75
2023/11/11 09:45:14;;;;;;;;;;;;;;;21.33;27.06;96815.00;4981103;28;1914;-75
2023/11/11 09:47:40;;;;;;;;;;;;;;;21.28;27.37;96803.50;4997627;28;815;-75
2023/11/11 09:50:06;;;;;;;;;;;;;;;21.05;27.54;96811.38;4980994;28;1169;-75
2023/11/11 09:52:31;;;;;;;;;;;;;;;21.05;27.43;96814.19;4997012;28;906;-76
2023/11/11 09:55:01;;;;;;;;;;;;;;;20.54;28.14;96806.25;5015786;28;775;-75
2023/11/11 09:57:29;;;;;;;;;;;;;;;20.48;28.25;96810.94;5035142;28;846;-75
2023/11/11 09:59:56;;;;;;;;;;;;;;;20.55;28.34;96815.50;5034039;28;763;-75
2023/11/11 10:02:21;;;;;;;;;;;;;;;20.13;28.72;96815.94;5034290;28;930;-75
2023/11/11 10:04:47;;;;;;;;;;;;;;;20.29;28.59;96815.69;5017852;28;1969;-75
2023/11/11 10:07:13;;;;;;;;;;;;;;;20.87;28.12;96802.06;5018091;28;727;-75
2023/11/11 10:09:39;;;;;;;;;;;;;;;21.21;27.16;96804.59;5034461;28;1300;-75
2023/11/11 10:12:04;;;;;;;;;;;;;;;21.29;26.95;96794.53;5037907;28;770;-75
2023/11/11 10:14:32;;;;;;;;;;;;;;;21.45;26.93;96778.53;5037410;28;766;-75
2023/11/11 10:16:59;;;;;;;;;;;;;;;20.90;27.87;96764.38;5020287;28;1466;-76
2023/11/11 10:19:26;;;;;;;;;;;;;;;20.95;27.67;96758.09;5021414;28;871;-75
2023/11/11 10:21:55;;;;;;;;;;;;;;;20.46;28.55;96745.59;5020908;28;815;-75
2023/11/11 10:24:20;;;;;;;;;;;;;;;20.39;28.46;96733.81;5004810;28;1910;-75
2023/11/11 10:26:46;;;;;;;;;;;;;;;20.25;28.89;96730.31;5038846;28;731;-75
2023/11/11 10:29:12;;;;;;;;;;;;;;;20.91;27.88;96712.22;5020688;28;803;-75
2023/11/11 10:31:38;;;;;;;;;;;;;;;21.14;27.34;96705.94;5020731;28;759;-75
2023/11/11 10:34:04;;;;;;;;;;;;;;;21.20;27.46;96706.88;5038792;28;751;-75
2023/11/11 10:36:48;;;;;;;;;;;;;;;21.21;27.31;96725.41;5021099;28;1027;-75
2023/11/11 10:39:15;;;;;;;;;;;;;;;20.98;27.71;96717.56;5020648;28;903;-76
2023/11/11 10:41:40;;;;;;;;;;;;;;;20.84;27.71;96712.53;5020986;28;1197;-75
2023/11/11 10:44:07;;;;;;;;;;;;;;;20.36;28.43;96712.13;5021075;28;1926;-75
2023/11/11 10:46:33;;;;;;;;;;;;;;;20.38;28.36;96709.63;5004756;28;1120;-75
2023/11/11 10:48:58;;;;;;;;;;;;;;;20.50;28.13;96722.88;4999768;28;936;-75
2023/11/11 10:51:24;;;;;;;;;;;;;;;20.59;27.97;96731.38;4983874;28;873;-75
2023/11/11 10:53:49;;;;;;;;;;;;;;;20.51;28.19;96736.50;5000030;28;1151;-75
2023/11/11 10:56:15;;;;;;;;;;;;;;;20.92;27.67;96736.41;4999961;28;763;-75
2023/11/11 10:58:41;;;;;;;;;;;;;;;21.21;27.44;96728.22;4999904;28;894;-76
2023/11/11 11:01:06;;;;;;;;;;;;;;;21.26;27.21;96716.28;5000084;28;937;-76
2023/11/11 11:03:32;;;;;;;;;;;;;;;21.10;27.66;96694.00;4999751;28;1902;-75
2023/11/11 11:06:33;;;;;;;;;;;;;;;21.01;27.58;96699.66;4999791;28;940;-75
2023/11/11 11:09:01;;;;;;;;;;;;;;;20.69;27.86;96667.94;4957871;29;943;-75
2023/11/11 11:11:33;;;;;;;;;;;;;;;20.81;27.91;96692.44;4957975;29;919;-75
2023/11/11 11:14:08;;;;;;;;;;;;;;;20.77;27.97;96696.66;4957749;29;826;-75
2023/11/11 11:16:34;;;;;;;;;;;;;;;20.65;28.14;96721.00;4957147;29;1039;-75
2023/11/11 11:18:59;;;;;;;;;;;;;;;21.05;27.45;96711.59;4957449;29;1173;-75
2023/11/11 11:21:27;;;;;;;;;;;;;;;20.42;28.41;96704.63;4956834;28;815;-75
2023/11/11 11:23:53;;;;;;;;;;;;;;;20.93;27.64;96716.13;4957154;29;1906;-75
2023/11/11 11:26:28;;;;;;;;;;;;;;;21.12;27.22;96716.91;4950786;28;823;-75
2023/11/11 11:29:22;;;;;;;;;;;;;;;21.26;27.30;96704.97;4960510;28;1054;-75
2023/11/11 11:32:06;;;;;;;;;;;;;;;21.25;27.21;96709.06;4918970;29;1111;-75
2023/11/11 11:34:36;;;;;;;;;;;;;;;20.87;27.70;96706.72;4918890;29;1164;-75
2023/11/11 11:37:01;;;;;;;;;;;;;;;20.51;28.17;96701.81;4918693;29;1135;-75
2023/11/11 11:39:35;;;;;;;;;;;;;;;20.62;28.34;96690.84;4903253;29;1233;-75
2023/11/11 11:42:10;;;;;;;;;;;;;;;20.84;27.91;96690.72;4907321;28;1125;-75
2023/11/11 11:44:36;;;;;;;;;;;;;;;20.58;28.34;96678.94;4956753;28;1975;-75
2023/11/11 11:47:01;;;;;;;;;;;;;;;20.97;27.74;96687.72;4956876;28;760;-75
2023/11/11 11:49:27;;;;;;;;;;;;;;;21.21;27.39;96682.19;4940927;29;1128;-75
2023/11/11 11:51:52;;;;;;;;;;;;;;;21.47;26.75;96676.97;4941010;29;807;-75
2023/11/11 11:54:18;;;;;;;;;;;;;;;21.56;26.75;96672.06;4956872;29;863;-75
2023/11/11 11:56:44;;;;;;;;;;;;;;;21.57;26.75;96672.84;4956767;28;1292;-75
2023/11/11 11:59:13;;;;;;;;;;;;;;;21.24;27.21;96659.41;4940476;29;882;-75
2023/11/11 12:01:39;;;;;;;;;;;;;;;21.03;27.46;96637.75;4940691;29;1201;-75
2023/11/11 12:04:05;;;;;;;;;;;;;;;20.75;27.93;96622.88;4956288;28;1979;-75
2023/11/11 12:06:30;;;;;;;;;;;;;;;20.58;28.20;96602.63;4956821;28;878;-75
2023/11/11 12:08:57;;;;;;;;;;;;;;;20.37;28.39;96595.06;5007845;28;1091;-75
2023/11/11 12:11:26;;;;;;;;;;;;;;;20.49;28.59;96585.69;5036912;28;802;-75
2023/11/11 12:13:55;;;;;;;;;;;;;;;20.62;28.14;96593.97;5019416;28;744;-75
2023/11/11 12:16:21;;;;;;;;;;;;;;;20.77;27.99;96603.38;5002690;28;862;-75
2023/11/11 12:18:47;;;;;;;;;;;;;;;20.61;28.10;96589.59;5019299;28;743;-75
2023/11/11 12:21:17;;;;;;;;;;;;;;;20.85;27.65;96592.53;5036405;28;837;-75
2023/11/11 12:23:43;;;;;;;;;;;;;;;20.84;27.91;96579.69;5019053;28;1973;-75
2023/11/11 12:26:09;;;;;;;;;;;;;;;20.87;27.69;96570.22;5002412;28;779;-75
2023/11/11 12:28:35;;;;;;;;;;;;;;;20.96;27.86;96575.88;5036743;28;848;-75
2023/11/11 12:31:04;;;;;;;;;;;;;;;21.30;27.12;96558.50;5019100;28;761;-75
2023/11/11 12:33:30;;;;;;;;;;;;;;;21.24;27.15;96551.91;5018805;28;811;-75
2023/11/11 12:35:55;;;;;;;;;;;;;;;21.09;27.43;96548.19;5001955;28;1006;-76
2023/11/11 12:38:24;;;;;;;;;;;;;;;20.76;27.86;96543.25;5018823;28;811;-75
2023/11/11 12:40:52;;;;;;;;;;;;;;;20.28;28.39;96537.31;5035996;28;932;-75
2023/11/11 12:43:19;;;;;;;;;;;;;;;20.94;27.62;96550.13;5002308;28;817;-75
2023/11/11 12:45:54;;;;;;;;;;;;;;;20.65;28.08;96545.78;5018873;28;1960;-75
2023/11/11 12:48:22;;;;;;;;;;;;;;;20.60;28.27;96534.31;5019020;28;739;-75
2023/11/11 12:50:47;;;;;;;;;;;;;;;20.45;28.61;96505.91;5018872;28;834;-75
2023/11/11 12:53:16;;;;;;;;;;;;;;;20.38;28.29;96484.41;5018691;28;1219;-75
2023/11/11 12:55:42;;;;;;;;;;;;;;;20.84;27.57;96481.50;5036163;28;750;-75
2023/11/11 12:58:23;;;;;;;;;;;;;;;21.11;27.15;96482.66;4994275;28;1062;-75